Time;durP1;ratioP1;P1;durP2;ratioP2;P2;SDS_P1;SDS_P2;PMS_P1;PMS_P2;Temp;Humidity;BMP_temperature;BMP_pressure;BME280_temperature;BME280_humidity;BME280_pressure;Samples;Min_cycle;Max_cycle;Signal;HPM_P1;HPM_P2
2023/04/13 00:00:31;;;;;;;;;;;9.40;66.00;;;;;;5101911;27;92391;-43
2023/04/13 00:02:57;;;;;;;;;;;9.40;66.00;;;;;;5101247;27;93628;-43
2023/04/13 00:05:23;;;;;;;;;;;9.30;66.00;;;;;;5101715;27;92133;-43
2023/04/13 00:07:49;;;;;;;;;;;9.30;66.00;;;;;;5101505;27;93776;-43
2023/04/13 00:10:17;;;;;;;;;;;9.30;66.20;;;;;;5100317;27;94050;-43
2023/04/13 00:12:46;;;;;;;;;;;9.30;66.10;;;;;;5100885;27;92068;-43
2023/04/13 00:15:12;;;;;;;;;;;9.30;66.00;;;;;;5100374;27;94644;-43
2023/04/13 00:17:37;;;;;;;;;;;9.30;66.00;;;;;;5101322;27;92112;-43
2023/04/13 00:20:07;;;;;;;;;;;9.30;66.10;;;;;;5101227;27;93836;-43
2023/04/13 00:22:33;;;;;;;;;;;9.20;66.50;;;;;;5100599;27;94420;-43
2023/04/13 00:24:58;;;;;;;;;;;9.20;66.00;;;;;;5101125;27;92130;-43
2023/04/13 00:27:29;;;;;;;;;;;9.20;66.00;;;;;;5101597;27;92291;-43
2023/04/13 00:29:57;;;;;;;;;;;9.20;65.90;;;;;;5100337;27;94355;-43
2023/04/13 00:32:24;;;;;;;;;;;9.20;66.10;;;;;;5100951;27;92042;-43
2023/04/13 00:34:50;;;;;;;;;;;9.20;66.10;;;;;;5098989;27;93634;-43
2023/04/13 00:37:17;;;;;;;;;;;9.20;65.90;;;;;;5101309;27;92132;-43
2023/04/13 00:39:45;;;;;;;;;;;9.20;66.00;;;;;;5100555;27;92453;-43
2023/04/13 00:42:11;;;;;;;;;;;9.10;65.80;;;;;;5100339;27;94723;-43
2023/04/13 00:44:36;;;;;;;;;;;9.10;65.80;;;;;;5100631;27;92628;-43
2023/04/13 00:47:03;;;;;;;;;;;9.10;65.90;;;;;;5096666;27;92788;-42
2023/04/13 00:49:30;;;;;;;;;;;9.10;65.90;;;;;;5100168;27;94950;-43
2023/04/13 00:51:55;;;;;;;;;;;9.10;65.90;;;;;;5101245;27;91465;-43
2023/04/13 00:54:21;;;;;;;;;;;9.10;66.00;;;;;;5100990;27;92170;-43
2023/04/13 00:56:47;;;;;;;;;;;9.00;66.00;;;;;;5103154;27;94422;-43
2023/04/13 00:59:13;;;;;;;;;;;9.00;65.90;;;;;;5100148;27;94555;-43
2023/04/13 01:01:55;;;;;;;;;;;9.00;66.00;;;;;;5100253;27;92960;-43
2023/04/13 01:04:24;;;;;;;;;;;9.00;66.00;;;;;;5096283;27;92860;-43
2023/04/13 01:06:59;;;;;;;;;;;9.00;66.00;;;;;;5100614;27;93835;-43
2023/04/13 01:09:35;;;;;;;;;;;9.00;66.00;;;;;;5099445;27;94672;-43
2023/04/13 01:12:23;;;;;;;;;;;8.90;65.90;;;;;;5100605;27;92245;-43
2023/04/13 01:15:02;;;;;;;;;;;9.00;65.90;;;;;;5093447;27;94145;-43
2023/04/13 01:17:29;;;;;;;;;;;8.90;66.00;;;;;;5099911;27;94175;-43
2023/04/13 01:19:58;;;;;;;;;;;8.90;66.00;;;;;;5103579;27;92598;-43
2023/04/13 01:22:27;;;;;;;;;;;8.90;65.90;;;;;;5095854;27;95043;-43
2023/04/13 01:25:05;;;;;;;;;;;8.90;66.00;;;;;;5099673;27;93080;-43
2023/04/13 01:27:43;;;;;;;;;;;8.90;65.80;;;;;;5100263;27;94306;-43
2023/04/13 01:30:09;;;;;;;;;;;8.90;65.90;;;;;;5099720;27;94377;-43
2023/04/13 01:32:36;;;;;;;;;;;8.80;65.90;;;;;;5099781;27;92174;-43
2023/04/13 01:35:02;;;;;;;;;;;8.80;65.90;;;;;;5100246;27;92841;-43
2023/04/13 01:37:28;;;;;;;;;;;8.80;65.90;;;;;;5099607;27;93131;-43
2023/04/13 01:39:54;;;;;;;;;;;8.80;66.00;;;;;;5103055;27;92137;-43
2023/04/13 01:42:19;;;;;;;;;;;8.80;65.90;;;;;;5097812;27;94326;-43
2023/04/13 01:44:45;;;;;;;;;;;8.80;65.90;;;;;;5098011;27;92220;-42
2023/04/13 01:47:14;;;;;;;;;;;8.70;65.70;;;;;;5099865;27;93895;-43
2023/04/13 01:50:13;;;;;;;;;;;8.70;65.90;;;;;;5098725;27;93901;-43
2023/04/13 01:52:40;;;;;;;;;;;8.70;65.80;;;;;;5064099;27;92219;-43
2023/04/13 01:55:06;;;;;;;;;;;8.70;65.90;;;;;;5099726;27;94063;-43
2023/04/13 01:57:34;;;;;;;;;;;8.70;65.90;;;;;;5098892;27;95247;-43
2023/04/13 02:00:12;;;;;;;;;;;8.70;65.70;;;;;;5099361;27;92251;-43
2023/04/13 02:02:37;;;;;;;;;;;8.70;65.80;;;;;;5102252;27;92026;-43
2023/04/13 02:05:03;;;;;;;;;;;8.60;65.60;;;;;;5099602;27;92568;-43
2023/04/13 02:07:28;;;;;;;;;;;8.60;65.70;;;;;;5100172;27;92434;-43
2023/04/13 02:09:54;;;;;;;;;;;8.60;65.60;;;;;;5098772;27;94772;-43
2023/04/13 02:12:19;;;;;;;;;;;8.60;65.60;;;;;;5099897;27;92184;-43
2023/04/13 02:14:45;;;;;;;;;;;8.60;65.80;;;;;;5098460;27;93438;-43
2023/04/13 02:17:11;;;;;;;;;;;8.60;65.60;;;;;;5098799;27;94578;-43
2023/04/13 02:19:36;;;;;;;;;;;8.60;65.70;;;;;;5099581;27;92186;-43
2023/04/13 02:22:02;;;;;;;;;;;8.50;65.60;;;;;;5099062;27;93957;-43
2023/04/13 02:24:29;;;;;;;;;;;8.50;65.70;;;;;;5101684;27;94808;-43
2023/04/13 02:26:55;;;;;;;;;;;8.50;65.60;;;;;;5099380;27;94013;-42
2023/04/13 02:29:21;;;;;;;;;;;8.50;65.70;;;;;;5098816;27;94785;-42
2023/04/13 02:31:47;;;;;;;;;;;8.50;65.40;;;;;;5099444;27;91399;-42
2023/04/13 02:34:13;;;;;;;;;;;8.50;65.70;;;;;;5098937;27;92930;-43
2023/04/13 02:39:23;;;;;;;;;;;8.50;65.60;;;;;;5094591;27;93084;-43
2023/04/13 02:41:49;;;;;;;;;;;8.40;65.60;;;;;;5098980;27;94650;-43
2023/04/13 02:44:14;;;;;;;;;;;8.50;65.70;;;;;;5098574;27;94643;-43
2023/04/13 02:46:40;;;;;;;;;;;8.40;65.50;;;;;;5102221;27;92159;-43
2023/04/13 02:49:05;;;;;;;;;;;8.40;65.70;;;;;;5098176;27;94632;-42
2023/04/13 02:51:31;;;;;;;;;;;8.40;65.70;;;;;;5098625;27;92165;-42
2023/04/13 02:53:57;;;;;;;;;;;8.40;65.70;;;;;;5099350;27;92959;-43
2023/04/13 02:56:26;;;;;;;;;;;8.30;65.70;;;;;;5098816;27;93688;-42
2023/04/13 02:58:52;;;;;;;;;;;8.40;65.80;;;;;;5094664;27;92168;-43
2023/04/13 03:01:17;;;;;;;;;;;8.30;65.50;;;;;;5099049;27;94084;-43
2023/04/13 03:03:44;;;;;;;;;;;8.30;65.60;;;;;;5101013;27;95920;-43
2023/04/13 03:06:10;;;;;;;;;;;8.30;65.70;;;;;;5102308;27;92176;-43
2023/04/13 03:08:35;;;;;;;;;;;8.30;65.70;;;;;;5105004;27;93700;-43
2023/04/13 03:11:01;;;;;;;;;;;8.30;65.80;;;;;;5102063;27;92849;-43
2023/04/13 03:13:26;;;;;;;;;;;8.20;65.70;;;;;;5102227;27;92369;-43
2023/04/13 03:15:52;;;;;;;;;;;8.20;65.70;;;;;;5101599;27;94360;-43
2023/04/13 03:18:17;;;;;;;;;;;8.20;65.70;;;;;;5102170;27;92177;-43
2023/04/13 03:20:43;;;;;;;;;;;8.20;65.70;;;;;;5102742;27;92760;-43
2023/04/13 03:23:09;;;;;;;;;;;8.20;65.70;;;;;;5101389;27;94715;-43
2023/04/13 03:25:35;;;;;;;;;;;8.20;65.70;;;;;;5098312;27;92162;-43
2023/04/13 03:28:00;;;;;;;;;;;8.20;65.70;;;;;;5101093;27;93563;-43
2023/04/13 03:30:26;;;;;;;;;;;8.20;65.70;;;;;;5104654;27;94417;-43
2023/04/13 03:32:51;;;;;;;;;;;8.20;65.70;;;;;;5102411;27;92442;-43
2023/04/13 03:35:17;;;;;;;;;;;8.10;65.70;;;;;;5101079;27;94127;-43
2023/04/13 03:37:43;;;;;;;;;;;8.10;65.60;;;;;;5102051;27;92195;-43
2023/04/13 03:40:09;;;;;;;;;;;8.10;65.70;;;;;;5101705;27;92899;-43
2023/04/13 03:42:35;;;;;;;;;;;8.10;65.80;;;;;;5101135;27;95359;-43
2023/04/13 03:45:01;;;;;;;;;;;8.00;65.70;;;;;;5102176;27;92023;-42
2023/04/13 03:47:26;;;;;;;;;;;8.00;65.70;;;;;;5101662;27;92970;-42
2023/04/13 03:49:52;;;;;;;;;;;8.00;65.70;;;;;;5104390;27;92883;-42
2023/04/13 03:52:17;;;;;;;;;;;8.00;65.60;;;;;;5100911;27;93802;-42
2023/04/13 03:54:43;;;;;;;;;;;8.00;65.70;;;;;;5101401;27;93304;-43
2023/04/13 03:57:08;;;;;;;;;;;8.00;65.80;;;;;;5101513;27;92128;-43
2023/04/13 03:59:34;;;;;;;;;;;8.00;65.60;;;;;;5101730;27;94043;-42
2023/04/13 04:02:01;;;;;;;;;;;8.00;65.60;;;;;;5101221;27;93088;-42
2023/04/13 04:04:27;;;;;;;;;;;8.00;65.60;;;;;;5101814;27;92217;-43
2023/04/13 04:06:52;;;;;;;;;;;8.00;65.70;;;;;;5101662;27;93452;-43
2023/04/13 04:09:18;;;;;;;;;;;7.90;65.50;;;;;;5101404;27;92351;-43
2023/04/13 04:11:43;;;;;;;;;;;7.90;65.50;;;;;;5104905;27;92162;-43
2023/04/13 04:14:09;;;;;;;;;;;7.90;65.70;;;;;;5099210;27;94126;-43
2023/04/13 04:16:35;;;;;;;;;;;7.90;65.60;;;;;;5100784;27;93131;-43
2023/04/13 04:19:01;;;;;;;;;;;7.90;65.50;;;;;;5101382;27;94725;-42
2023/04/13 04:21:32;;;;;;;;;;;7.90;65.40;;;;;;5100370;27;94236;-42
2023/04/13 04:24:01;;;;;;;;;;;7.90;65.60;;;;;;5101206;27;92711;-42
2023/04/13 04:26:28;;;;;;;;;;;7.90;65.50;;;;;;5097932;27;92510;-43
2023/04/13 04:29:00;;;;;;;;;;;7.80;65.60;;;;;;5100637;27;93008;-43
2023/04/13 04:31:30;;;;;;;;;;;7.90;65.60;;;;;;5101235;27;92031;-43
2023/04/13 04:33:56;;;;;;;;;;;7.80;65.50;;;;;;5103976;27;94250;-43
2023/04/13 04:36:23;;;;;;;;;;;7.80;65.40;;;;;;5101226;27;92125;-43
2023/04/13 04:38:48;;;;;;;;;;;7.80;65.50;;;;;;5100868;27;92318;-43
2023/04/13 04:41:19;;;;;;;;;;;7.80;65.50;;;;;;5100015;27;93934;-43
2023/04/13 04:43:45;;;;;;;;;;;7.80;65.50;;;;;;5101299;27;92132;-43
2023/04/13 04:46:14;;;;;;;;;;;7.80;65.60;;;;;;5100923;27;94142;-43
2023/04/13 04:48:40;;;;;;;;;;;7.80;65.50;;;;;;5099869;27;94757;-43
2023/04/13 04:51:07;;;;;;;;;;;7.70;65.50;;;;;;5100739;27;92577;-43
2023/04/13 04:53:33;;;;;;;;;;;7.70;65.50;;;;;;5100745;27;92541;-42
2023/04/13 04:55:58;;;;;;;;;;;7.70;65.40;;;;;;5103347;27;94361;-43
2023/04/13 04:58:24;;;;;;;;;;;7.70;65.40;;;;;;5101227;27;93889;-43
2023/04/13 05:00:51;;;;;;;;;;;7.70;65.40;;;;;;5100075;27;94774;-42
2023/04/13 05:03:16;;;;;;;;;;;7.70;65.40;;;;;;5100501;27;92217;-42
2023/04/13 05:05:42;;;;;;;;;;;7.70;65.40;;;;;;5099902;27;93869;-42
2023/04/13 05:08:08;;;;;;;;;;;7.70;65.40;;;;;;5100173;27;94316;-42
2023/04/13 05:10:34;;;;;;;;;;;7.70;65.50;;;;;;5100232;27;92059;-43
2023/04/13 05:13:00;;;;;;;;;;;7.70;65.40;;;;;;5100827;27;92288;-43
2023/04/13 05:15:26;;;;;;;;;;;7.70;65.50;;;;;;5100098;27;93045;-43
2023/04/13 05:17:52;;;;;;;;;;;7.70;65.50;;;;;;5103458;27;92107;-43
2023/04/13 05:20:18;;;;;;;;;;;7.70;65.40;;;;;;5099930;27;94404;-43
2023/04/13 05:22:44;;;;;;;;;;;7.70;65.40;;;;;;5100961;27;91663;-43
2023/04/13 05:25:09;;;;;;;;;;;7.60;65.40;;;;;;5100277;27;92035;-43
2023/04/13 05:27:35;;;;;;;;;;;7.70;65.40;;;;;;5099615;27;94561;-43
2023/04/13 05:30:02;;;;;;;;;;;7.70;65.40;;;;;;5100095;27;93087;-43
2023/04/13 05:32:27;;;;;;;;;;;7.60;65.40;;;;;;5099573;27;94971;-42
2023/04/13 05:34:53;;;;;;;;;;;7.60;65.50;;;;;;5099638;27;94949;-43
2023/04/13 05:37:19;;;;;;;;;;;7.60;65.50;;;;;;5100192;27;92159;-43
2023/04/13 05:39:45;;;;;;;;;;;7.60;65.50;;;;;;5102593;27;93775;-43
2023/04/13 05:42:10;;;;;;;;;;;7.60;65.50;;;;;;5100219;27;92230;-43
2023/04/13 05:44:36;;;;;;;;;;;7.60;65.50;;;;;;5095817;27;93961;-43
2023/04/13 05:47:02;;;;;;;;;;;7.60;65.50;;;;;;5099893;27;93813;-43
2023/04/13 05:49:27;;;;;;;;;;;7.60;65.60;;;;;;5099676;27;92693;-43
2023/04/13 05:51:53;;;;;;;;;;;7.60;65.60;;;;;;5099912;27;92438;-43
2023/04/13 05:54:19;;;;;;;;;;;7.60;65.60;;;;;;5098520;27;95362;-43
2023/04/13 05:56:46;;;;;;;;;;;7.60;65.60;;;;;;5099897;27;92118;-43
2023/04/13 05:59:12;;;;;;;;;;;7.60;65.70;;;;;;5102614;27;93657;-43
2023/04/13 06:01:37;;;;;;;;;;;7.60;65.70;;;;;;5099740;27;92182;-43
2023/04/13 06:04:04;;;;;;;;;;;7.60;65.70;;;;;;5099972;27;93619;-43
2023/04/13 06:06:30;;;;;;;;;;;7.60;65.70;;;;;;5098887;27;94899;-43
2023/04/13 06:08:55;;;;;;;;;;;7.60;65.70;;;;;;5099466;27;92177;-43
2023/04/13 06:11:21;;;;;;;;;;;7.60;65.80;;;;;;5099653;27;93847;-43
2023/04/13 06:13:47;;;;;;;;;;;7.60;65.80;;;;;;5098682;27;93058;-43
2023/04/13 06:16:12;;;;;;;;;;;7.60;65.90;;;;;;5099468;27;92143;-43
2023/04/13 06:18:38;;;;;;;;;;;7.60;65.90;;;;;;5098869;27;93632;-43
2023/04/13 06:21:03;;;;;;;;;;;7.60;65.90;;;;;;5101884;27;94630;-43
2023/04/13 06:23:29;;;;;;;;;;;7.60;65.90;;;;;;5099141;27;93177;-43
2023/04/13 06:25:55;;;;;;;;;;;7.60;66.00;;;;;;5099155;27;93071;-43
2023/04/13 06:28:21;;;;;;;;;;;7.60;66.00;;;;;;5095825;27;92487;-43
2023/04/13 06:30:47;;;;;;;;;;;7.60;66.00;;;;;;5099613;27;93746;-43
2023/04/13 06:33:14;;;;;;;;;;;7.60;66.10;;;;;;5097893;27;94632;-43
2023/04/13 06:35:39;;;;;;;;;;;7.50;66.00;;;;;;5100077;27;91451;-43
2023/04/13 06:38:06;;;;;;;;;;;7.60;66.10;;;;;;5104574;27;92981;-43
2023/04/13 06:40:32;;;;;;;;;;;7.60;66.10;;;;;;5105652;27;94392;-43
2023/04/13 06:42:57;;;;;;;;;;;7.60;66.10;;;;;;5109064;27;93359;-43
2023/04/13 06:45:23;;;;;;;;;;;7.60;66.20;;;;;;5105783;27;94583;-43
2023/04/13 06:47:51;;;;;;;;;;;7.60;66.20;;;;;;5106027;27;92222;-43
2023/04/13 06:50:16;;;;;;;;;;;7.60;66.20;;;;;;5106103;27;93927;-43
2023/04/13 06:52:42;;;;;;;;;;;7.60;66.20;;;;;;5105658;27;94848;-43
2023/04/13 06:55:08;;;;;;;;;;;7.60;66.30;;;;;;5105859;27;92233;-43
2023/04/13 06:57:33;;;;;;;;;;;7.60;66.30;;;;;;5105841;27;94057;-43
2023/04/13 06:59:59;;;;;;;;;;;7.50;66.40;;;;;;5105588;27;93031;-42
2023/04/13 07:02:25;;;;;;;;;;;7.60;66.40;;;;;;5105421;27;92356;-43
2023/04/13 07:04:51;;;;;;;;;;;7.50;66.30;;;;;;5108216;27;93827;-43
2023/04/13 07:07:16;;;;;;;;;;;7.50;66.40;;;;;;5104745;27;93044;-43
2023/04/13 07:09:42;;;;;;;;;;;7.50;66.40;;;;;;5105122;27;94703;-43
2023/04/13 07:12:07;;;;;;;;;;;7.50;66.40;;;;;;5105452;27;93095;-43
2023/04/13 07:14:34;;;;;;;;;;;7.50;66.50;;;;;;5105282;27;92161;-43
2023/04/13 07:17:00;;;;;;;;;;;7.50;66.50;;;;;;5105539;27;92404;-43
2023/04/13 07:19:28;;;;;;;;;;;7.50;66.50;;;;;;5105225;27;94391;-43
2023/04/13 07:21:53;;;;;;;;;;;7.60;66.50;;;;;;5105774;27;92198;-43
2023/04/13 07:24:20;;;;;;;;;;;7.60;66.50;;;;;;5102638;27;91494;-43
2023/04/13 07:26:46;;;;;;;;;;;7.60;66.50;;;;;;5108075;27;95109;-43
2023/04/13 07:29:14;;;;;;;;;;;7.60;66.50;;;;;;5105918;27;92526;-43
2023/04/13 07:31:40;;;;;;;;;;;7.60;66.50;;;;;;5104184;27;94390;-43
2023/04/13 07:34:05;;;;;;;;;;;7.60;66.50;;;;;;5105975;27;92162;-43
2023/04/13 07:36:31;;;;;;;;;;;7.60;66.40;;;;;;5105741;27;93775;-43
2023/04/13 07:38:57;;;;;;;;;;;7.60;66.50;;;;;;5101162;27;93185;-43
2023/04/13 07:41:23;;;;;;;;;;;7.60;66.50;;;;;;5105417;27;92579;-43
2023/04/13 07:43:49;;;;;;;;;;;7.60;66.50;;;;;;5105019;27;93651;-43
2023/04/13 07:46:14;;;;;;;;;;;7.60;66.60;;;;;;5104787;27;94577;-43
2023/04/13 07:48:40;;;;;;;;;;;7.60;66.60;;;;;;5105936;27;91863;-43
2023/04/13 07:51:06;;;;;;;;;;;7.60;66.60;;;;;;5101146;27;93148;-43
2023/04/13 07:53:31;;;;;;;;;;;7.60;66.60;;;;;;5101740;27;92511;-43
2023/04/13 07:55:57;;;;;;;;;;;7.70;66.50;;;;;;5101259;27;93722;-43
2023/04/13 07:58:22;;;;;;;;;;;7.70;66.50;;;;;;5101632;27;92976;-43
2023/04/13 08:00:48;;;;;;;;;;;7.70;66.40;;;;;;5101485;27;92210;-43
2023/04/13 08:03:13;;;;;;;;;;;7.70;66.40;;;;;;5101246;27;93856;-43
2023/04/13 08:05:39;;;;;;;;;;;7.70;66.40;;;;;;5097587;27;93058;-43
2023/04/13 08:08:05;;;;;;;;;;;7.70;66.40;;;;;;5103896;27;92589;-44
2023/04/13 08:10:30;;;;;;;;;;;7.70;66.50;;;;;;5100811;27;94398;-43
2023/04/13 08:12:56;;;;;;;;;;;7.70;66.40;;;;;;5100402;27;91464;-43
2023/04/13 08:15:21;;;;;;;;;;;7.80;66.50;;;;;;5098784;27;93268;-43
2023/04/13 08:17:46;;;;;;;;;;;7.80;66.40;;;;;;5096360;27;94893;-42
2023/04/13 08:20:12;;;;;;;;;;;7.80;66.40;;;;;;5100712;27;93488;-43
2023/04/13 08:22:38;;;;;;;;;;;7.70;66.40;;;;;;5101242;27;94327;-43
2023/04/13 08:25:06;;;;;;;;;;;7.80;66.40;;;;;;5100627;27;94530;-43
2023/04/13 08:27:31;;;;;;;;;;;7.80;66.30;;;;;;5101172;27;92683;-43
2023/04/13 08:30:00;;;;;;;;;;;7.80;66.30;;;;;;5103492;27;94393;-43
2023/04/13 08:32:27;;;;;;;;;;;7.80;66.40;;;;;;5100919;27;92070;-43
2023/04/13 08:34:53;;;;;;;;;;;7.80;66.40;;;;;;5100679;27;93846;-43
2023/04/13 08:37:19;;;;;;;;;;;7.80;66.40;;;;;;5096699;27;94293;-43
2023/04/13 08:39:47;;;;;;;;;;;7.90;66.50;;;;;;5101257;27;92512;-43
2023/04/13 08:42:13;;;;;;;;;;;7.90;66.50;;;;;;5101259;27;92246;-43
2023/04/13 08:44:39;;;;;;;;;;;7.90;66.60;;;;;;5099494;27;95537;-43
2023/04/13 08:47:04;;;;;;;;;;;7.90;66.70;;;;;;5100839;27;92756;-43
2023/04/13 08:49:31;;;;;;;;;;;7.90;66.60;;;;;;5101023;27;92437;-43
2023/04/13 08:51:58;;;;;;;;;;;7.90;66.60;;;;;;5103872;27;93008;-43
2023/04/13 08:54:25;;;;;;;;;;;7.90;66.60;;;;;;5100894;27;93782;-43
2023/04/13 08:56:51;;;;;;;;;;;7.90;66.80;;;;;;5100185;27;94922;-43
2023/04/13 08:59:17;;;;;;;;;;;8.00;66.90;;;;;;5100306;27;92726;-43
2023/04/13 09:01:44;;;;;;;;;;;7.90;66.90;;;;;;5100562;27;94093;-43
2023/04/13 09:04:10;;;;;;;;;;;8.00;67.00;;;;;;5096115;27;94841;-43
2023/04/13 09:06:40;;;;;;;;;;;8.00;67.00;;;;;;5100157;27;92196;-43
2023/04/13 09:09:07;;;;;;;;;;;8.00;67.20;;;;;;5099770;27;93142;-43
2023/04/13 09:11:32;;;;;;;;;;;8.00;67.00;;;;;;5099841;27;93738;-43
2023/04/13 09:13:58;;;;;;;;;;;8.00;67.30;;;;;;5103153;27;92212;-42
2023/04/13 09:16:23;;;;;;;;;;;8.00;67.20;;;;;;5099738;27;93182;-42
2023/04/13 09:18:56;;;;;;;;;;;8.10;67.30;;;;;;5099742;27;92229;-43
2023/04/13 09:21:22;;;;;;;;;;;8.10;67.30;;;;;;5100279;27;92297;-42
2023/04/13 09:23:55;;;;;;;;;;;8.10;67.40;;;;;;5099862;27;94623;-42
2023/04/13 09:26:21;;;;;;;;;;;8.10;67.40;;;;;;5097580;27;91772;-42
2023/04/13 09:28:48;;;;;;;;;;;8.20;67.60;;;;;;5099901;27;93085;-42
2023/04/13 09:31:14;;;;;;;;;;;8.20;67.40;;;;;;5099087;27;94719;-43
2023/04/13 09:33:47;;;;;;;;;;;8.20;67.60;;;;;;5099513;27;93149;-42
2023/04/13 09:36:14;;;;;;;;;;;8.20;67.50;;;;;;5099315;27;94603;-42
2023/04/13 09:38:41;;;;;;;;;;;8.20;67.50;;;;;;5099741;27;92437;-42
2023/04/13 09:41:07;;;;;;;;;;;8.20;67.70;;;;;;5099700;27;94111;-42
2023/04/13 09:43:39;;;;;;;;;;;8.30;67.50;;;;;;5099019;27;94811;-42
2023/04/13 09:46:12;;;;;;;;;;;8.30;67.70;;;;;;5096801;27;92155;-42
2023/04/13 09:48:38;;;;;;;;;;;8.30;67.90;;;;;;5099812;27;94040;-42
2023/04/13 09:51:05;;;;;;;;;;;8.30;67.80;;;;;;5099992;27;93836;-43
2023/04/13 09:53:46;;;;;;;;;;;8.40;67.50;;;;;;5100037;27;92231;-42
2023/04/13 09:56:11;;;;;;;;;;;8.40;67.80;;;;;;5102670;27;93982;-42
2023/04/13 09:58:42;;;;;;;;;;;8.40;67.70;;;;;;5095248;27;93147;-43
2023/04/13 10:01:08;;;;;;;;;;;8.40;67.80;;;;;;5095700;27;95059;-43
2023/04/13 10:03:35;;;;;;;;;;;8.40;67.80;;;;;;5098782;27;94735;-42
2023/04/13 10:06:03;;;;;;;;;;;8.50;67.70;;;;;;5099073;27;92156;-43
2023/04/13 10:08:29;;;;;;;;;;;8.50;67.70;;;;;;5098806;27;94166;-42
2023/04/13 10:10:54;;;;;;;;;;;8.50;67.80;;;;;;5098389;27;94948;-43
2023/04/13 10:13:22;;;;;;;;;;;8.50;67.60;;;;;;5094630;27;92149;-42
2023/04/13 10:16:03;;;;;;;;;;;8.50;67.90;;;;;;5099772;27;94478;-43
2023/04/13 10:18:58;;;;;;;;;;;8.60;67.70;;;;;;5102111;27;94609;-42
2023/04/13 10:21:27;;;;;;;;;;;8.60;67.80;;;;;;5096090;27;94216;-43
2023/04/13 10:23:52;;;;;;;;;;;8.60;67.60;;;;;;5097737;27;95606;-43
2023/04/13 10:26:29;;;;;;;;;;;8.60;67.80;;;;;;5099243;27;92153;-42
2023/04/13 10:28:55;;;;;;;;;;;8.70;67.80;;;;;;5095580;27;92598;-42
2023/04/13 10:31:20;;;;;;;;;;;8.70;67.60;;;;;;5098934;27;93453;-43
2023/04/13 10:33:47;;;;;;;;;;;8.70;67.90;;;;;;5099186;27;92228;-43
2023/04/13 10:36:12;;;;;;;;;;;8.70;67.80;;;;;;5099265;27;93873;-43
2023/04/13 10:38:41;;;;;;;;;;;8.80;67.90;;;;;;5098272;27;93744;-42
2023/04/13 10:41:07;;;;;;;;;;;8.80;68.00;;;;;;5098616;27;91454;-42
2023/04/13 10:43:33;;;;;;;;;;;8.90;67.80;;;;;;5098579;27;93167;-43
2023/04/13 10:46:05;;;;;;;;;;;8.90;68.20;;;;;;5099016;27;92075;-43
2023/04/13 10:48:30;;;;;;;;;;;8.90;67.80;;;;;;5098713;27;92998;-43
2023/04/13 10:50:56;;;;;;;;;;;8.90;67.80;;;;;;5098410;27;95001;-43
2023/04/13 10:53:27;;;;;;;;;;;8.90;68.00;;;;;;5098735;27;92115;-43
2023/04/13 10:55:53;;;;;;;;;;;9.00;67.80;;;;;;5098826;27;94286;-42
2023/04/13 10:58:18;;;;;;;;;;;9.00;68.00;;;;;;5098397;27;93221;-43
2023/04/13 11:00:45;;;;;;;;;;;9.00;67.90;;;;;;5098819;27;92174;-43
2023/04/13 11:03:10;;;;;;;;;;;9.00;67.90;;;;;;5101597;27;93733;-43
2023/04/13 11:05:37;;;;;;;;;;;9.10;67.90;;;;;;5099196;27;91574;-44
2023/04/13 11:08:03;;;;;;;;;;;9.10;68.10;;;;;;5099178;27;92550;-42
2023/04/13 11:10:30;;;;;;;;;;;9.10;68.10;;;;;;5097917;27;94475;-42
2023/04/13 11:12:56;;;;;;;;;;;9.10;68.00;;;;;;5098022;27;93500;-43
2023/04/13 11:15:26;;;;;;;;;;;9.20;68.20;;;;;;5098045;27;95055;-43
2023/04/13 11:17:51;;;;;;;;;;;9.20;68.30;;;;;;5094495;27;94701;-42
2023/04/13 11:20:17;;;;;;;;;;;9.20;68.10;;;;;;5098334;27;92321;-43
2023/04/13 11:22:44;;;;;;;;;;;9.30;68.00;;;;;;5098755;27;93933;-42
2023/04/13 11:25:09;;;;;;;;;;;9.30;68.00;;;;;;5105181;27;94372;-43
2023/04/13 11:27:36;;;;;;;;;;;9.30;67.90;;;;;;5102123;27;93758;-43
2023/04/13 11:30:06;;;;;;;;;;;9.40;67.90;;;;;;5101755;27;93837;-43
2023/04/13 11:32:32;;;;;;;;;;;9.40;68.10;;;;;;5102351;27;92230;-43
2023/04/13 11:35:04;;;;;;;;;;;9.40;68.00;;;;;;5101951;27;92998;-43
2023/04/13 11:37:33;;;;;;;;;;;9.50;67.80;;;;;;5100503;27;95537;-44
2023/04/13 11:40:08;;;;;;;;;;;9.50;67.90;;;;;;5098280;27;92140;-43
2023/04/13 11:42:36;;;;;;;;;;;9.50;68.00;;;;;;5101725;27;92345;-42
2023/04/13 11:45:02;;;;;;;;;;;9.60;68.00;;;;;;5101230;27;94788;-42
2023/04/13 11:47:28;;;;;;;;;;;9.60;68.00;;;;;;5104796;27;92182;-43
2023/04/13 11:49:53;;;;;;;;;;;9.60;67.90;;;;;;5101190;27;95325;-43
2023/04/13 11:52:19;;;;;;;;;;;9.70;67.90;;;;;;5101671;27;92288;-43
2023/04/13 11:54:45;;;;;;;;;;;9.70;67.80;;;;;;5102307;27;93866;-43
2023/04/13 11:57:11;;;;;;;;;;;9.70;67.80;;;;;;5100969;27;94427;-42
2023/04/13 11:59:37;;;;;;;;;;;9.80;68.10;;;;;;5101859;27;92094;-43
2023/04/13 12:02:04;;;;;;;;;;;9.70;67.90;;;;;;5100705;27;93069;-43
2023/04/13 12:04:39;;;;;;;;;;;9.80;67.90;;;;;;5101041;27;93317;-42
2023/04/13 12:07:14;;;;;;;;;;;9.80;68.10;;;;;;5104785;27;92625;-43
2023/04/13 12:09:46;;;;;;;;;;;9.90;68.10;;;;;;5097458;27;92975;-43
2023/04/13 12:12:19;;;;;;;;;;;9.90;67.90;;;;;;5101001;27;92101;-42
2023/04/13 12:14:55;;;;;;;;;;;9.90;68.00;;;;;;5100845;27;93495;-43
2023/04/13 12:17:20;;;;;;;;;;;9.90;67.90;;;;;;5100770;27;94424;-42
2023/04/13 12:19:52;;;;;;;;;;;10.00;67.90;;;;;;5101622;27;91774;-43
2023/04/13 12:22:18;;;;;;;;;;;10.00;68.10;;;;;;5100614;27;92891;-43
2023/04/13 12:24:43;;;;;;;;;;;10.00;67.90;;;;;;5100799;27;93026;-43
2023/04/13 12:27:09;;;;;;;;;;;10.10;68.00;;;;;;5100038;27;93051;-42
2023/04/13 12:29:38;;;;;;;;;;;10.10;68.10;;;;;;5103515;27;94783;-42
2023/04/13 12:32:10;;;;;;;;;;;10.20;68.10;;;;;;5100959;27;92159;-43
2023/04/13 12:34:36;;;;;;;;;;;10.20;67.90;;;;;;5093141;27;93226;-43
2023/04/13 12:37:02;;;;;;;;;;;10.30;67.90;;;;;;5096123;27;94828;-44
2023/04/13 12:39:28;;;;;;;;;;;10.30;67.80;;;;;;5101171;27;92184;-43
2023/04/13 12:41:53;;;;;;;;;;;10.30;67.80;;;;;;5100497;27;94021;-43
2023/04/13 12:44:19;;;;;;;;;;;10.40;67.90;;;;;;5100535;27;92251;-43
2023/04/13 12:46:45;;;;;;;;;;;10.40;67.80;;;;;;5100543;27;92310;-43
2023/04/13 12:49:10;;;;;;;;;;;10.40;67.90;;;;;;5100807;27;93771;-44
2023/04/13 12:51:36;;;;;;;;;;;10.50;67.90;;;;;;5102514;27;95518;-43
2023/04/13 12:54:02;;;;;;;;;;;10.50;68.00;;;;;;5100988;27;94940;-43
2023/04/13 12:56:27;;;;;;;;;;;10.50;67.80;;;;;;5099954;27;93870;-43
2023/04/13 12:58:53;;;;;;;;;;;10.60;67.90;;;;;;5100249;27;92506;-44
2023/04/13 13:01:20;;;;;;;;;;;10.60;67.90;;;;;;5100385;27;93859;-43
2023/04/13 13:03:46;;;;;;;;;;;10.60;67.90;;;;;;5096081;27;94716;-43
2023/04/13 13:06:11;;;;;;;;;;;10.70;67.90;;;;;;5099758;27;92113;-43
2023/04/13 13:08:38;;;;;;;;;;;10.70;68.00;;;;;;5100555;27;94236;-43
2023/04/13 13:11:04;;;;;;;;;;;10.70;68.30;;;;;;5095645;27;94297;-43
2023/04/13 13:13:29;;;;;;;;;;;10.70;67.70;;;;;;5102875;27;92100;-43
2023/04/13 13:15:55;;;;;;;;;;;10.80;67.90;;;;;;5099135;27;95899;-43
2023/04/13 13:18:20;;;;;;;;;;;10.80;67.90;;;;;;5100279;27;92140;-43
2023/04/13 13:20:48;;;;;;;;;;;10.90;67.80;;;;;;5099525;27;93944;-43
2023/04/13 13:23:13;;;;;;;;;;;10.90;67.90;;;;;;5099662;27;94457;-43
2023/04/13 13:25:40;;;;;;;;;;;11.00;68.00;;;;;;5099956;27;92204;-43
2023/04/13 13:28:07;;;;;;;;;;;11.00;68.00;;;;;;5100247;27;93708;-43
2023/04/13 13:30:34;;;;;;;;;;;11.00;68.00;;;;;;5099462;27;94690;-42
2023/04/13 13:33:00;;;;;;;;;;;11.10;68.10;;;;;;5100064;27;91433;-43
2023/04/13 13:35:26;;;;;;;;;;;11.10;68.10;;;;;;5102198;27;93154;-44
2023/04/13 13:37:51;;;;;;;;;;;11.10;68.10;;;;;;5099908;27;92186;-42
2023/04/13 13:40:17;;;;;;;;;;;11.20;68.00;;;;;;5099524;27;93899;-43
2023/04/13 13:42:42;;;;;;;;;;;11.20;68.10;;;;;;5099196;27;94550;-43
2023/04/13 13:45:08;;;;;;;;;;;11.30;68.00;;;;;;5099841;27;92108;-42
2023/04/13 13:47:34;;;;;;;;;;;11.30;68.00;;;;;;5098844;27;93881;-42
2023/04/13 13:49:59;;;;;;;;;;;11.40;67.80;;;;;;5098895;27;93480;-42
2023/04/13 13:52:25;;;;;;;;;;;11.40;67.70;;;;;;5099801;27;92131;-43
2023/04/13 13:54:51;;;;;;;;;;;11.50;68.40;;;;;;5099459;27;93799;-43
2023/04/13 13:57:16;;;;;;;;;;;11.50;67.60;;;;;;5099058;27;92493;-43
2023/04/13 13:59:42;;;;;;;;;;;11.60;67.60;;;;;;5099595;27;93122;-43
2023/04/13 14:02:08;;;;;;;;;;;11.60;67.60;;;;;;5098929;27;94534;-44
2023/04/13 14:04:33;;;;;;;;;;;11.60;67.50;;;;;;5098870;27;93461;-42
2023/04/13 14:06:59;;;;;;;;;;;11.70;67.70;;;;;;5099303;27;93444;-42
2023/04/13 14:09:24;;;;;;;;;;;11.70;67.50;;;;;;5098875;27;94246;-43
2023/04/13 14:11:50;;;;;;;;;;;11.70;67.50;;;;;;5099594;27;92249;-43
2023/04/13 14:14:15;;;;;;;;;;;11.80;67.70;;;;;;5098739;27;93902;-43
2023/04/13 14:16:41;;;;;;;;;;;11.90;67.60;;;;;;5101773;27;94336;-43
2023/04/13 14:19:06;;;;;;;;;;;11.90;67.60;;;;;;5099049;27;93725;-43
2023/04/13 14:21:32;;;;;;;;;;;12.00;67.50;;;;;;5098674;27;94306;-45
2023/04/13 14:23:57;;;;;;;;;;;12.10;67.50;;;;;;5099043;27;92066;-43
2023/04/13 14:26:23;;;;;;;;;;;12.10;67.40;;;;;;5099385;27;92667;-43
2023/04/13 14:28:48;;;;;;;;;;;12.10;67.60;;;;;;5097401;27;95777;-43